Time;durP1;ratioP1;P1;durP2;ratioP2;P2;SDS_P1;SDS_P2;PMS_P1;PMS_P2;Temp;Humidity;BMP_temperature;BMP_pressure;BME280_temperature;BME280_humidity;BME280_pressure;Samples;Min_cycle;Max_cycle;Signal;HPM_P1;HPM_P2
2022/08/12 00:43:24;;;;;;;5.22;2.63;;;;;;;21.47;47.90;100372.34;5089260;28;20065;-73
2022/08/12 00:48:35;;;;;;;7.32;2.90;;;;;;;21.45;47.91;100369.00;5089073;28;20034;-73
2022/08/12 00:51:03;;;;;;;4.80;2.42;;;;;;;21.48;47.97;100373.19;5073278;28;20101;-73
2022/08/12 00:53:29;;;;;;;3.85;2.67;;;;;;;21.52;48.00;100365.59;5073926;28;20017;-73
2022/08/12 00:55:57;;;;;;;5.68;2.70;;;;;;;21.54;47.77;100368.97;5087313;28;20161;-73
2022/08/12 00:58:25;;;;;;;5.43;2.55;;;;;;;21.52;47.78;100369.16;5088966;28;20042;-74
2022/08/12 01:00:51;;;;;;;4.47;3.05;;;;;;;21.49;47.79;100362.25;5077365;28;20241;-74
2022/08/12 01:03:20;;;;;;;6.45;2.50;;;;;;;21.50;47.85;100363.91;5069701;28;20055;-73
2022/08/12 01:11:36;;;;;;;7.78;2.80;;;;;;;21.52;47.82;100374.53;5047205;28;20051;-74
2022/08/12 01:14:02;;;;;;;5.95;2.80;;;;;;;21.52;47.80;100371.84;5063424;28;20028;-73
2022/08/12 01:16:27;;;;;;;6.65;3.22;;;;;;;21.49;47.82;100374.88;5068577;28;20035;-73
2022/08/12 01:18:55;;;;;;;6.55;3.03;;;;;;;21.48;47.77;100368.63;5068503;28;20025;-74
2022/08/12 01:21:25;;;;;;;9.20;3.72;;;;;;;21.48;47.75;100376.72;5068404;28;20037;-73
2022/08/12 01:24:09;;;;;;;6.10;2.97;;;;;;;21.45;47.93;100371.69;5076571;28;20023;-74
2022/08/12 01:26:38;;;;;;;5.55;2.95;;;;;;;21.44;48.04;100372.72;5088450;28;20032;-74
2022/08/12 01:29:05;;;;;;;6.25;2.88;;;;;;;21.43;48.00;100380.94;5086330;28;20012;-74
2022/08/12 01:31:35;;;;;;;5.15;2.67;;;;;;;21.44;47.96;100385.31;5068308;28;20222;-72
2022/08/12 01:34:02;;;;;;;4.10;2.38;;;;;;;21.35;48.16;100384.47;5075211;28;20165;-73
2022/08/12 01:36:35;;;;;;;6.47;2.53;;;;;;;21.26;48.30;100388.22;5068204;28;20021;-72
2022/08/12 01:39:02;;;;;;;7.00;2.80;;;;;;;21.26;48.30;100382.81;5079894;28;20047;-73
2022/08/12 01:41:30;;;;;;;4.97;2.85;;;;;;;21.30;48.27;100381.47;5088134;28;20034;-73
2022/08/12 01:43:59;;;;;;;4.00;2.58;;;;;;;21.32;48.29;100382.16;5088080;28;20036;-73
2022/08/12 01:46:47;;;;;;;5.88;2.55;;;;;;;21.28;48.15;100381.63;5087918;28;20016;-72
2022/08/12 01:49:30;;;;;;;7.75;2.63;;;;;;;21.28;48.29;100383.50;5077078;28;20025;-72
2022/08/12 01:52:03;;;;;;;4.32;2.85;;;;;;;21.27;48.21;100373.75;5067820;28;20047;-72
2022/08/12 01:54:37;;;;;;;5.90;3.30;;;;;;;21.27;48.48;100387.19;5069113;28;20238;-73
2022/08/12 01:57:02;;;;;;;4.72;2.95;;;;;;;21.22;48.42;100382.34;5067685;28;20198;-72
2022/08/12 01:59:46;;;;;;;7.72;3.38;;;;;;;21.24;48.41;100376.78;5067638;28;20020;-74
2022/08/12 02:02:52;;;;;;;5.35;2.53;;;;;;;21.25;48.38;100381.97;5067660;28;20099;-73
2022/08/12 02:11:38;;;;;;;5.57;3.03;;;;;;;21.25;48.38;100375.75;5087639;28;20304;-72
2022/08/12 02:14:37;;;;;;;6.18;3.00;;;;;;;21.24;48.43;100374.06;5087168;28;20024;-73
2022/08/12 02:17:28;;;;;;;9.57;2.78;;;;;;;21.22;48.62;100386.84;5067450;28;20035;-74
2022/08/12 02:20:12;;;;;;;4.60;3.35;;;;;;;21.20;48.62;100387.03;5067424;28;20039;-72
2022/08/12 02:22:40;;;;;;;7.65;3.13;;;;;;;21.19;48.57;100390.75;5067413;28;20218;-72
2022/08/12 02:25:29;;;;;;;5.15;3.05;;;;;;;21.23;48.52;100383.16;5081903;28;20066;-72
2022/08/12 02:27:55;;;;;;;12.18;3.20;;;;;;;21.24;48.60;100385.69;5044517;28;20184;-73
2022/08/12 02:30:28;;;;;;;5.15;3.28;;;;;;;21.23;48.68;100389.41;5084130;28;20086;-73
2022/08/12 02:32:55;;;;;;;5.20;3.03;;;;;;;21.19;48.86;100388.03;5066916;28;20025;-73
2022/08/12 02:35:24;;;;;;;4.80;3.03;;;;;;;21.22;48.78;100394.94;5069991;28;20033;-73
2022/08/12 02:37:52;;;;;;;9.77;3.00;;;;;;;21.19;48.37;100396.13;5084691;28;20043;-73
2022/08/12 02:40:19;;;;;;;8.07;2.85;;;;;;;21.13;48.77;100399.47;5087227;28;20028;-73
2022/08/12 02:43:21;;;;;;;5.93;3.10;;;;;;;21.08;49.05;100401.84;5087314;28;20131;-73
2022/08/12 02:46:08;;;;;;;9.25;3.40;;;;;;;21.03;49.16;100394.25;5067163;28;20033;-72
2022/08/12 02:48:50;;;;;;;5.45;2.70;;;;;;;20.96;49.46;100394.09;5066964;28;20127;-73
2022/08/12 02:51:22;;;;;;;7.25;3.53;;;;;;;20.99;49.22;100392.94;5067138;28;20100;-73
2022/08/12 02:53:49;;;;;;;5.57;2.78;;;;;;;20.99;49.36;100395.63;5070551;28;20016;-73
2022/08/12 02:56:16;;;;;;;6.40;3.05;;;;;;;21.01;49.17;100396.31;5087023;28;20152;-73
2022/08/12 02:58:45;;;;;;;5.97;3.20;;;;;;;21.03;49.27;100394.25;5085306;28;20013;-74
2022/08/12 03:01:12;;;;;;;7.72;2.63;;;;;;;21.06;49.26;100391.25;5086996;28;20028;-73
2022/08/12 03:03:39;;;;;;;5.80;3.45;;;;;;;21.09;49.24;100398.16;5086953;28;20185;-72
2022/08/12 03:06:14;;;;;;;7.55;3.42;;;;;;;21.10;49.13;100395.28;5086815;28;20036;-72
2022/08/12 03:08:41;;;;;;;6.55;2.90;;;;;;;21.06;49.26;100398.47;5085970;28;20272;-71
2022/08/12 03:11:16;;;;;;;6.43;3.20;;;;;;;21.10;49.29;100399.84;5067113;28;20051;-71
2022/08/12 03:13:50;;;;;;;8.98;3.10;;;;;;;21.08;49.26;100399.16;5066696;28;20088;-71
2022/08/12 03:16:16;;;;;;;4.35;3.25;;;;;;;21.05;49.33;100394.94;5066800;28;20024;-72
2022/08/12 03:18:42;;;;;;;5.78;3.20;;;;;;;21.02;49.42;100393.44;5066996;28;20028;-70
2022/08/12 03:21:07;;;;;;;8.07;2.70;;;;;;;21.07;49.38;100401.00;5085418;28;20021;-72
2022/08/12 03:23:35;;;;;;;7.82;3.83;;;;;;;21.14;49.28;100401.16;5086768;28;20024;-72
2022/08/12 03:26:01;;;;;;;5.90;3.30;;;;;;;21.19;49.03;100393.44;5085957;28;20042;-72
2022/08/12 03:31:13;;;;;;;11.57;3.90;;;;;;;21.19;49.34;100380.81;5070253;28;20134;-71
2022/08/12 03:33:43;;;;;;;8.65;3.85;;;;;;;21.23;49.45;100389.41;5066793;28;20025;-70
2022/08/12 03:36:10;;;;;;;7.68;3.13;;;;;;;21.31;49.32;100383.16;5066723;28;20055;-70
2022/08/12 03:38:40;;;;;;;7.32;3.17;;;;;;;21.38;49.14;100386.84;5066640;28;20029;-73
2022/08/12 03:41:33;;;;;;;9.82;3.60;;;;;;;21.43;48.96;100389.88;5079232;28;20036;-74
2022/08/12 04:01:24;;;;;;;11.48;4.03;;;;;;;21.84;48.51;100394.31;5081476;28;20023;-72
2022/08/12 04:03:51;;;;;;;7.65;3.45;;;;;;;21.87;48.49;100390.44;5069971;28;20139;-72
2022/08/12 04:06:25;;;;;;;11.88;5.05;;;;;;;21.92;48.42;100388.91;5070481;28;20031;-72
2022/08/12 04:08:56;;;;;;;12.75;4.22;;;;;;;21.92;48.42;100399.69;5089490;28;20032;-72
2022/08/12 04:14:21;;;;;;;6.53;3.75;;;;;;;21.88;48.72;100395.66;5086100;28;20027;-72
2022/08/12 04:16:48;;;;;;;9.48;4.38;;;;;;;21.89;48.62;100389.25;5087451;28;20028;-72
2022/08/12 04:19:15;;;;;;;14.25;4.53;;;;;;;21.91;48.62;100394.47;5071111;28;20012;-72
2022/08/12 04:21:41;;;;;;;7.28;3.20;;;;;;;21.89;48.67;100391.94;5069626;28;20028;-72
2022/08/12 04:24:08;;;;;;;8.23;4.18;;;;;;;21.94;48.61;100402.19;5071829;28;20024;-72
2022/08/12 04:26:38;;;;;;;10.32;4.65;;;;;;;21.98;48.23;100390.06;5089622;28;20035;-72
2022/08/12 04:29:04;;;;;;;9.07;3.85;;;;;;;22.05;48.24;100391.06;5084047;28;20079;-72
2022/08/12 04:31:41;;;;;;;9.50;4.05;;;;;;;22.16;47.87;100392.50;5069821;28;20028;-73
2022/08/12 04:34:08;;;;;;;7.25;3.80;;;;;;;22.27;47.74;100388.56;5074107;28;20017;-73
2022/08/12 04:36:36;;;;;;;9.35;3.90;;;;;;;22.40;47.66;100393.41;5089408;28;20043;-72
2022/08/12 04:39:04;;;;;;;10.80;3.95;;;;;;;22.48;47.37;100395.25;5089246;28;20008;-73
2022/08/12 04:41:31;;;;;;;10.10;4.53;;;;;;;22.55;47.54;100398.88;5084293;28;20013;-72
2022/08/12 04:43:56;;;;;;;13.00;5.32;;;;;;;22.58;47.06;100397.69;5068959;28;20152;-72
2022/08/12 04:46:23;;;;;;;9.68;4.57;;;;;;;22.65;47.01;100398.66;5069183;28;20024;-73
2022/08/12 04:48:50;;;;;;;13.70;5.15;;;;;;;22.79;47.01;100397.06;5068999;28;20078;-73
2022/08/12 04:51:16;;;;;;;10.55;4.50;;;;;;;23.13;46.40;100391.19;5068963;28;20020;-73
2022/08/12 04:53:42;;;;;;;10.27;4.82;;;;;;;23.48;45.97;100393.44;5069033;28;20039;-73
2022/08/12 04:56:09;;;;;;;11.88;4.78;;;;;;;23.80;45.85;100391.38;5068545;28;20088;-73
2022/08/12 04:58:35;;;;;;;11.00;5.63;;;;;;;24.07;44.71;100392.59;5068829;28;20195;-73
2022/08/12 05:01:02;;;;;;;12.43;4.95;;;;;;;24.31;44.72;100387.91;5068890;28;20021;-73
2022/08/12 05:03:27;;;;;;;13.82;4.78;;;;;;;24.53;44.16;100390.59;5068726;28;20024;-73
2022/08/12 05:05:55;;;;;;;8.27;4.38;;;;;;;24.74;43.43;100394.41;5068671;28;20176;-73
2022/08/12 05:08:22;;;;;;;8.18;4.68;;;;;;;24.95;42.98;100388.13;5086363;28;20048;-74
2022/08/12 05:10:48;;;;;;;10.80;4.63;;;;;;;25.21;42.31;100389.38;5088748;28;20035;-73
2022/08/12 05:13:27;;;;;;;7.50;4.65;;;;;;;25.45;41.75;100388.13;5088581;28;20100;-73
2022/08/12 05:15:53;;;;;;;14.13;5.03;;;;;;;25.60;41.10;100385.28;5088496;28;20093;-75
2022/08/12 05:18:20;;;;;;;15.55;5.47;;;;;;;25.73;41.25;100389.97;5088476;28;20087;-75
2022/08/12 05:20:47;;;;;;;7.47;4.55;;;;;;;25.90;40.59;100390.44;5088478;28;20154;-75
2022/08/12 05:23:20;;;;;;;11.32;4.10;;;;;;;26.03;40.09;100395.94;5088438;28;20028;-75
2022/08/12 05:25:49;;;;;;;8.90;4.40;;;;;;;26.12;39.97;100388.50;5088498;28;20028;-74
2022/08/12 05:28:15;;;;;;;8.02;3.97;;;;;;;26.23;39.45;100394.41;5088291;28;20133;-76
2022/08/12 05:30:41;;;;;;;14.23;4.57;;;;;;;26.31;39.16;100391.47;5088391;28;20263;-75
2022/08/12 05:33:08;;;;;;;8.88;3.85;;;;;;;26.43;39.04;100389.84;5088228;28;20214;-75
2022/08/12 05:35:41;;;;;;;8.48;4.20;;;;;;;26.55;39.06;100397.38;5088320;28;20020;-78
2022/08/12 05:40:56;;;;;;;8.27;3.97;;;;;;;26.75;39.04;100390.13;5071963;28;20137;-73
2022/08/12 05:43:23;;;;;;;8.95;4.32;;;;;;;26.78;38.89;100387.00;5067915;28;20016;-73
2022/08/12 05:45:48;;;;;;;8.18;5.22;;;;;;;26.76;38.96;100386.34;5068004;28;20280;-75
2022/08/12 05:48:15;;;;;;;7.97;4.05;;;;;;;26.79;38.81;100385.97;5071164;28;20012;-73
2022/08/12 05:50:42;;;;;;;8.55;3.85;;;;;;;26.84;38.37;100385.34;5082563;28;20253;-75
2022/08/12 05:53:08;;;;;;;6.28;3.72;;;;;;;26.83;38.32;100375.53;5067791;28;20028;-77
2022/08/12 05:55:35;;;;;;;9.57;3.55;;;;;;;26.88;38.53;100383.06;5081476;28;20081;-74
2022/08/12 05:58:03;;;;;;;7.32;3.63;;;;;;;26.85;38.66;100384.31;5087798;28;20036;-75
2022/08/12 06:00:30;;;;;;;8.10;3.83;;;;;;;26.76;38.53;100385.53;5076262;28;20019;-76
2022/08/12 06:03:01;;;;;;;6.68;3.20;;;;;;;26.71;38.48;100388.03;5068216;28;20060;-74
2022/08/12 06:05:28;;;;;;;6.57;3.03;;;;;;;26.59;38.73;100385.06;5067589;28;20284;-76
2022/08/12 06:07:57;;;;;;;17.05;4.55;;;;;;;26.44;39.03;100383.38;5080848;28;20032;-74
2022/08/12 06:10:23;;;;;;;4.78;2.90;;;;;;;26.19;39.27;100393.94;5087727;28;20039;-77
2022/08/12 06:12:49;;;;;;;5.97;3.00;;;;;;;25.96;39.23;100394.22;5087695;28;20071;-74
2022/08/12 06:15:19;;;;;;;6.03;3.03;;;;;;;25.79;39.93;100382.91;5086730;28;20397;-76
2022/08/12 06:17:45;;;;;;;6.97;2.17;;;;;;;25.69;40.27;100380.53;5070053;28;20055;-77
2022/08/12 06:20:14;;;;;;;8.15;3.00;;;;;;;25.61;39.55;100383.44;5087493;28;20020;-75
2022/08/12 06:22:44;;;;;;;6.88;2.70;;;;;;;25.54;39.92;100378.78;5087792;28;20024;-77
2022/08/12 06:25:12;;;;;;;4.63;2.50;;;;;;;25.51;40.18;100381.94;5087994;28;20043;-76
2022/08/12 06:27:58;;;;;;;4.57;2.47;;;;;;;25.44;40.47;100378.31;5087566;28;20207;-76
2022/08/12 06:30:25;;;;;;;4.68;2.42;;;;;;;25.40;40.39;100380.56;5052319;28;20036;-74
2022/08/12 06:32:51;;;;;;;7.82;3.53;;;;;;;25.40;40.50;100379.72;5067069;28;20025;-76
2022/08/12 06:35:17;;;;;;;5.25;2.85;;;;;;;25.40;40.60;100380.56;5067209;28;20044;-78
2022/08/12 06:37:47;;;;;;;10.68;3.20;;;;;;;25.38;39.96;100376.38;5067293;28;20167;-76
2022/08/12 06:40:13;;;;;;;7.18;2.92;;;;;;;25.37;40.04;100380.97;5067142;28;20021;-75
2022/08/12 06:42:51;;;;;;;3.65;2.38;;;;;;;25.37;40.32;100375.53;5067249;28;20044;-75
2022/08/12 06:45:20;;;;;;;2.85;2.08;;;;;;;25.35;40.30;100387.63;5071356;28;20016;-74
2022/08/12 06:47:47;;;;;;;5.78;2.55;;;;;;;25.34;40.76;100383.22;5087317;28;20036;-75
2022/08/12 06:50:17;;;;;;;3.65;2.17;;;;;;;25.33;40.65;100379.66;5085774;28;20029;-74
2022/08/12 06:52:43;;;;;;;6.03;2.20;;;;;;;25.32;40.80;100390.72;5076079;28;20016;-75
2022/08/12 06:55:12;;;;;;;4.97;2.22;;;;;;;25.32;40.59;100386.13;5082510;28;20368;-77
2022/08/12 06:58:00;;;;;;;2.65;2.20;;;;;;;25.31;40.39;100380.91;5066992;28;20021;-75
2022/08/12 07:00:29;;;;;;;3.28;1.85;;;;;;;25.31;40.80;100376.31;5076855;28;20056;-76
2022/08/12 07:02:56;;;;;;;5.68;2.17;;;;;;;25.31;40.91;100378.19;5085432;28;20043;-77
2022/08/12 07:05:26;;;;;;;4.88;2.20;;;;;;;25.31;40.59;100372.78;5076204;28;20095;-73
2022/08/12 07:07:54;;;;;;;7.97;2.37;;;;;;;25.29;40.56;100373.81;5085195;28;20102;-75
2022/08/12 07:10:22;;;;;;;7.80;2.22;;;;;;;25.29;40.41;100373.81;5049453;28;20165;-78
2022/08/12 07:12:53;;;;;;;4.25;2.15;;;;;;;25.29;39.94;100368.41;5066791;28;20152;-75
2022/08/12 07:15:23;;;;;;;4.35;1.88;;;;;;;25.30;40.15;100369.22;5066924;28;20025;-75
2022/08/12 07:17:50;;;;;;;3.28;1.77;;;;;;;25.30;39.23;100377.34;5066954;28;20013;-76
2022/08/12 07:20:16;;;;;;;2.58;1.48;;;;;;;25.32;39.11;100366.34;5078016;28;20029;-77
2022/08/12 07:22:42;;;;;;;4.03;2.00;;;;;;;25.34;39.09;100372.41;5070867;28;20084;-75
2022/08/12 07:27:53;;;;;;;3.45;2.10;;;;;;;25.34;38.91;100377.81;5080594;28;20019;-74
2022/08/12 07:30:20;;;;;;;8.20;1.88;;;;;;;25.34;38.62;100375.94;5090595;28;20027;-73
2022/08/12 07:32:48;;;;;;;3.70;1.85;;;;;;;25.34;38.79;100375.09;5090642;28;20036;-75
2022/08/12 07:35:16;;;;;;;4.05;2.25;;;;;;;25.35;37.75;100376.78;5084531;28;20042;-73
2022/08/12 07:37:43;;;;;;;5.50;2.30;;;;;;;25.31;37.95;100378.19;5090503;28;20016;-75
2022/08/12 07:40:10;;;;;;;6.70;1.75;;;;;;;25.32;37.82;100375.28;5077480;28;20044;-74
2022/08/12 07:42:37;;;;;;;5.28;1.88;;;;;;;25.34;38.06;100377.81;5083541;28;20039;-74
2022/08/12 07:45:06;;;;;;;3.22;1.90;;;;;;;25.36;38.23;100373.03;5073833;28;20153;-73
2022/08/12 07:47:34;;;;;;;3.80;1.63;;;;;;;25.35;37.91;100372.19;5070501;28;20024;-74
2022/08/12 07:50:00;;;;;;;6.03;2.55;;;;;;;25.35;37.19;100374.91;5082028;28;20033;-72
2022/08/12 07:52:27;;;;;;;3.80;1.80;;;;;;;25.36;37.71;100373.88;5084250;28;20138;-73
2022/08/12 07:54:52;;;;;;;4.22;1.80;;;;;;;25.35;37.81;100374.91;5074835;28;20032;-75
2022/08/12 07:57:18;;;;;;;4.70;1.95;;;;;;;25.35;38.23;100365.94;5074759;28;20028;-75
2022/08/12 07:59:43;;;;;;;3.65;1.30;;;;;;;25.34;38.22;100370.50;5076283;28;20031;-76
2022/08/12 08:02:09;;;;;;;2.85;1.85;;;;;;;25.34;38.10;100375.09;5083771;28;20087;-76
2022/08/12 08:07:24;;;;;;;15.27;2.70;;;;;;;25.32;37.13;100360.91;5081877;28;20044;-75
2022/08/12 08:09:52;;;;;;;11.68;2.30;;;;;;;25.28;37.27;100369.44;5085806;28;20024;-75
2022/08/12 08:15:03;;;;;;;3.90;1.73;;;;;;;25.24;37.42;100373.56;5078486;28;20257;-75
2022/08/12 08:17:28;;;;;;;5.13;2.20;;;;;;;25.22;37.57;100364.78;5077890;28;20129;-72
2022/08/12 08:19:54;;;;;;;7.70;1.90;;;;;;;25.21;37.97;100360.44;5085363;28;20023;-75
2022/08/12 08:22:21;;;;;;;4.47;1.88;;;;;;;25.20;37.68;100353.34;5072260;28;20031;-76
2022/08/12 08:24:50;;;;;;;9.18;2.22;;;;;;;25.20;37.42;100355.19;5069501;28;20020;-74
2022/08/12 08:27:16;;;;;;;4.43;1.70;;;;;;;25.17;37.43;100355.59;5069593;28;20049;-75
2022/08/12 08:29:44;;;;;;;7.68;2.00;;;;;;;25.16;37.17;100360.19;5068603;28;20017;-75
2022/08/12 08:32:10;;;;;;;3.22;1.75;;;;;;;25.15;37.45;100363.94;5069510;28;20032;-75
2022/08/12 08:34:36;;;;;;;7.75;2.17;;;;;;;25.13;37.34;100357.88;5069599;28;20037;-75
2022/08/12 08:37:02;;;;;;;9.27;2.70;;;;;;;25.12;37.34;100356.19;5069478;28;20273;-74
2022/08/12 08:39:27;;;;;;;7.63;2.35;;;;;;;25.11;37.10;100355.38;5069283;28;20032;-74
2022/08/12 08:44:38;;;;;;;8.85;2.60;;;;;;;25.07;37.21;100348.66;5072488;28;20087;-73
2022/08/12 08:47:08;;;;;;;5.78;2.40;;;;;;;25.09;36.92;100351.16;5069219;28;20024;-73
2022/08/12 08:49:35;;;;;;;4.38;2.45;;;;;;;25.07;36.91;100345.13;5069059;28;20040;-74
2022/08/12 08:52:03;;;;;;;4.85;2.40;;;;;;;25.07;37.10;100350.53;5071073;28;20048;-77
2022/08/12 08:54:32;;;;;;;5.63;2.20;;;;;;;25.05;36.95;100350.72;5082302;28;20037;-73
2022/08/12 08:57:01;;;;;;;5.03;2.40;;;;;;;25.01;37.07;100348.63;5080636;28;20021;-74
2022/08/12 08:59:27;;;;;;;9.88;2.53;;;;;;;24.97;37.00;100340.06;5084526;28;20227;-73
2022/08/12 09:01:53;;;;;;;11.80;2.95;;;;;;;24.94;37.03;100335.84;5081295;28;20016;-74
2022/08/12 09:04:24;;;;;;;3.15;2.05;;;;;;;24.94;37.12;100348.56;5088602;28;20132;-73
2022/08/12 09:06:53;;;;;;;7.43;1.98;;;;;;;24.95;36.97;100340.22;5088521;28;20036;-74
2022/08/12 09:09:19;;;;;;;3.67;2.25;;;;;;;24.93;36.99;100336.88;5083493;28;20049;-73
2022/08/12 09:14:28;;;;;;;6.47;2.25;;;;;;;24.94;37.43;100332.31;5068563;28;20028;-75
2022/08/12 09:16:54;;;;;;;9.35;2.58;;;;;;;24.96;37.42;100336.50;5068471;28;20029;-75
2022/08/12 09:19:19;;;;;;;4.15;2.30;;;;;;;24.95;37.40;100329.41;5072157;28;20256;-75
2022/08/12 09:21:47;;;;;;;4.70;2.40;;;;;;;24.96;37.47;100333.78;5078308;28;20036;-72
2022/08/12 09:24:17;;;;;;;6.15;2.20;;;;;;;24.97;37.37;100337.34;5076813;28;20036;-75
2022/08/12 09:26:45;;;;;;;8.35;3.00;;;;;;;24.99;37.06;100327.16;5081346;28;20051;-75
2022/08/12 09:29:12;;;;;;;5.38;2.83;;;;;;;24.98;36.85;100325.50;5077388;28;20159;-74
2022/08/12 09:31:40;;;;;;;8.23;2.90;;;;;;;24.95;37.25;100321.28;5073821;28;20028;-73
2022/08/12 09:34:07;;;;;;;4.47;3.10;;;;;;;24.95;37.22;100318.56;5078102;28;20096;-74
2022/08/12 09:36:37;;;;;;;7.97;2.60;;;;;;;24.98;37.09;100317.38;5080378;28;20021;-74
2022/08/12 09:39:06;;;;;;;13.55;3.30;;;;;;;24.97;36.82;100315.69;5082127;28;20039;-74
2022/08/12 09:41:39;;;;;;;9.48;2.67;;;;;;;25.01;37.55;100319.66;5075619;28;20177;-72
2022/08/12 09:46:48;;;;;;;9.23;3.10;;;;;;;25.10;37.48;100321.19;5071974;28;20171;-70
2022/08/12 09:49:14;;;;;;;5.82;2.80;;;;;;;25.11;37.32;100317.47;5074369;28;20028;-72
2022/08/12 09:51:42;;;;;;;3.90;2.88;;;;;;;25.12;37.52;100311.00;5077808;28;20024;-74
2022/08/12 09:54:11;;;;;;;6.93;2.40;;;;;;;25.13;36.92;100314.53;5085705;28;20031;-69
2022/08/12 09:56:40;;;;;;;5.25;2.72;;;;;;;25.13;36.83;100315.38;5075668;28;20020;-71
2022/08/12 09:59:09;;;;;;;8.25;2.78;;;;;;;25.16;37.00;100316.84;5081733;28;20059;-72
2022/08/12 10:01:39;;;;;;;8.15;2.50;;;;;;;25.19;37.22;100305.63;5074868;28;20024;-70
2022/08/12 10:04:09;;;;;;;8.38;2.63;;;;;;;25.20;37.10;100310.03;5073271;28;20024;-73
2022/08/12 10:06:36;;;;;;;4.53;3.03;;;;;;;25.18;36.74;100303.97;5075788;28;20112;-71
2022/08/12 10:09:06;;;;;;;6.18;2.53;;;;;;;25.19;36.68;100302.94;5075030;28;20088;-71
2022/08/12 10:14:17;;;;;;;4.00;2.35;;;;;;;25.16;36.49;100297.91;5079013;28;20027;-73
2022/08/12 10:16:43;;;;;;;4.55;2.50;;;;;;;25.15;36.52;100293.53;5087682;28;20020;-72
2022/08/12 10:19:08;;;;;;;3.85;2.22;;;;;;;25.15;36.40;100290.81;5081713;28;20073;-72
2022/08/12 10:21:40;;;;;;;5.70;2.40;;;;;;;25.16;36.04;100284.38;5087620;28;20020;-72
2022/08/12 10:24:23;;;;;;;2.65;2.08;;;;;;;25.17;36.04;100282.47;5071142;28;20040;-72
2022/08/12 10:29:43;;;;;;;7.40;2.55;;;;;;;25.16;36.89;100284.38;5075727;28;20319;-74
2022/08/12 10:32:11;;;;;;;7.95;2.72;;;;;;;25.17;36.80;100277.06;5074420;28;20063;-72
2022/08/12 10:34:38;;;;;;;9.18;2.70;;;;;;;25.20;37.34;100279.38;5072109;28;20027;-73
2022/08/12 10:37:05;;;;;;;4.80;2.35;;;;;;;25.21;37.06;100284.63;5067952;28;20029;-74
2022/08/12 10:39:34;;;;;;;5.65;2.58;;;;;;;25.21;37.01;100287.31;5068808;28;20029;-74
2022/08/12 10:44:49;;;;;;;7.10;2.22;;;;;;;25.20;36.79;100273.97;5072473;28;20020;-75
2022/08/12 10:47:15;;;;;;;5.68;2.22;;;;;;;25.19;36.76;100275.00;5067272;28;20248;-74
2022/08/12 10:49:45;;;;;;;9.27;2.28;;;;;;;25.20;36.23;100282.09;5074680;28;20040;-73
2022/08/12 10:52:11;;;;;;;7.57;2.30;;;;;;;25.21;36.55;100279.19;5068014;28;20100;-74
2022/08/12 10:54:37;;;;;;;4.10;2.10;;;;;;;25.22;36.56;100274.59;5070471;28;20017;-74
2022/08/12 10:57:03;;;;;;;7.53;2.40;;;;;;;25.21;36.23;100268.38;5071323;28;20104;-74
2022/08/12 10:59:29;;;;;;;4.13;2.33;;;;;;;25.22;36.07;100261.06;5072592;28;20005;-74
2022/08/12 11:01:56;;;;;;;8.15;2.55;;;;;;;25.23;36.04;100263.56;5079773;28;20021;-74
2022/08/12 11:04:23;;;;;;;6.97;2.58;;;;;;;25.23;36.22;100260.84;5091202;28;20031;-73
2022/08/12 11:06:52;;;;;;;3.80;2.10;;;;;;;25.24;36.34;100259.00;5094000;28;20032;-74
2022/08/12 11:09:23;;;;;;;6.00;2.30;;;;;;;25.24;36.06;100257.09;5090658;28;20183;-74
2022/08/12 11:11:49;;;;;;;5.50;2.22;;;;;;;25.22;36.40;100242.94;5071772;28;20095;-74
2022/08/12 11:14:27;;;;;;;3.90;2.25;;;;;;;25.22;36.35;100253.75;5090833;28;20105;-74
2022/08/12 11:16:56;;;;;;;3.25;1.95;;;;;;;25.25;36.09;100247.13;5089332;28;20019;-74
2022/08/12 11:19:22;;;;;;;11.35;2.28;;;;;;;25.24;35.97;100240.03;5090914;28;20086;-74
2022/08/12 11:21:48;;;;;;;6.50;2.28;;;;;;;25.26;35.95;100240.69;5090917;28;20148;-74
2022/08/12 11:24:14;;;;;;;4.03;2.25;;;;;;;25.29;36.02;100243.00;5082195;28;20040;-74
2022/08/12 11:26:39;;;;;;;5.35;2.22;;;;;;;25.28;36.01;100233.19;5079373;28;20028;-74
2022/08/12 11:29:05;;;;;;;3.33;1.90;;;;;;;25.28;35.91;100238.59;5088618;28;20082;-74
2022/08/12 11:31:30;;;;;;;4.53;2.20;;;;;;;25.28;36.01;100234.00;5078353;28;20028;-74
2022/08/12 11:33:56;;;;;;;4.35;2.13;;;;;;;25.28;36.26;100225.88;5070560;28;20033;-74
2022/08/12 11:36:21;;;;;;;4.97;1.80;;;;;;;25.31;36.04;100226.53;5070631;28;20032;-74
2022/08/12 11:38:46;;;;;;;7.55;2.55;;;;;;;25.28;36.35;100217.75;5075424;28;20020;-74
2022/08/12 11:41:12;;;;;;;5.28;2.10;;;;;;;25.28;36.54;100223.19;5090537;28;20104;-74
2022/08/12 11:43:37;;;;;;;4.72;2.00;;;;;;;25.28;36.71;100233.19;5090368;28;20031;-74
2022/08/12 11:46:03;;;;;;;4.35;2.35;;;;;;;25.26;36.86;100214.41;5090407;28;20024;-74
2022/08/12 11:48:28;;;;;;;2.63;2.05;;;;;;;25.26;36.80;100222.53;5089917;28;20225;-73
2022/08/12 11:50:54;;;;;;;4.97;1.98;;;;;;;25.27;36.48;100221.50;5088965;28;20099;-74
2022/08/12 11:53:20;;;;;;;4.22;2.22;;;;;;;25.28;36.57;100217.75;5087733;28;20070;-74
2022/08/12 11:55:46;;;;;;;3.92;2.08;;;;;;;25.28;36.45;100206.94;5083463;28;20032;-74
2022/08/12 11:58:11;;;;;;;3.33;1.90;;;;;;;25.30;36.06;100201.28;5074335;28;20069;-74
2022/08/12 12:00:37;;;;;;;8.52;2.10;;;;;;;25.31;36.37;100196.72;5078557;28;20020;-74
2022/08/12 12:03:02;;;;;;;4.75;2.05;;;;;;;25.28;36.74;100187.97;5082150;28;20025;-74
2022/08/12 12:05:28;;;;;;;6.25;2.05;;;;;;;25.28;36.57;100187.97;5087102;28;20024;-73
2022/08/12 12:07:53;;;;;;;2.78;2.08;;;;;;;25.31;36.43;100189.44;5088971;28;20103;-73
2022/08/12 12:10:20;;;;;;;3.20;1.95;;;;;;;25.31;36.31;100186.72;5076737;28;20134;-74
2022/08/12 12:12:46;;;;;;;3.40;1.40;;;;;;;25.32;36.52;100190.28;5069794;28;20188;-74
2022/08/12 12:15:12;;;;;;;2.55;1.58;;;;;;;25.34;36.29;100185.50;5075321;28;20137;-74
2022/08/12 12:17:40;;;;;;;4.40;2.20;;;;;;;25.36;36.25;100191.56;5083697;28;20024;-74
2022/08/12 12:20:09;;;;;;;4.82;1.58;;;;;;;25.35;36.30;100181.75;5083725;28;20032;-73
2022/08/12 12:22:35;;;;;;;3.92;2.03;;;;;;;25.35;36.46;100181.75;5072377;28;20095;-74
2022/08/12 12:25:01;;;;;;;5.57;1.70;;;;;;;25.33;36.42;100184.66;5069571;28;20025;-75
2022/08/12 12:27:26;;;;;;;3.20;1.65;;;;;;;25.31;36.62;100180.47;5081481;28;20249;-74
2022/08/12 12:29:55;;;;;;;2.95;1.50;;;;;;;25.34;36.38;100186.31;5078526;28;20025;-72
2022/08/12 12:32:21;;;;;;;2.72;1.50;;;;;;;25.34;36.52;100188.22;5087735;28;20020;-74
2022/08/12 12:34:46;;;;;;;2.88;1.40;;;;;;;25.35;36.06;100182.56;5071953;28;20092;-74
2022/08/12 12:37:12;;;;;;;3.78;2.20;;;;;;;25.35;36.36;100173.63;5069123;28;20024;-73
2022/08/12 12:39:39;;;;;;;4.00;1.60;;;;;;;25.35;35.74;100177.16;5078028;28;20028;-75
2022/08/12 12:42:05;;;;;;;4.05;1.83;;;;;;;25.35;36.18;100169.03;5089271;28;20028;-73
2022/08/12 12:44:31;;;;;;;4.20;1.88;;;;;;;25.35;36.26;100176.34;5082352;28;20047;-74
2022/08/12 12:46:56;;;;;;;2.13;1.27;;;;;;;25.36;36.12;100164.47;5086713;28;20047;-73
2022/08/12 12:49:21;;;;;;;1.77;1.42;;;;;;;25.34;36.08;100164.66;5088868;28;20022;-75
2022/08/12 12:51:47;;;;;;;7.50;2.03;;;;;;;25.35;36.28;100171.75;5089055;28;20182;-74
2022/08/12 12:54:12;;;;;;;4.03;1.77;;;;;;;25.36;36.24;100168.00;5085501;28;20150;-74
2022/08/12 12:56:40;;;;;;;7.05;1.95;;;;;;;25.37;36.30;100168.81;5071199;28;20029;-73
2022/08/12 12:59:06;;;;;;;1.98;1.30;;;;;;;25.35;36.47;100166.31;5068939;28;20021;-73
2022/08/12 13:01:32;;;;;;;10.27;1.88;;;;;;;25.36;36.29;100172.59;5077852;28;20034;-74
2022/08/12 13:03:58;;;;;;;2.92;1.50;;;;;;;25.34;36.41;100167.34;5072587;28;20138;-73
2022/08/12 13:06:28;;;;;;;4.00;1.70;;;;;;;25.35;36.32;100166.31;5084779;28;20092;-73
2022/08/12 13:08:58;;;;;;;2.43;1.20;;;;;;;25.34;36.57;100161.13;5084421;28;20029;-73
2022/08/12 13:11:23;;;;;;;1.98;1.40;;;;;;;25.33;36.49;100162.97;5074249;28;20251;-72
2022/08/12 13:13:52;;;;;;;3.70;1.52;;;;;;;25.33;36.52;100157.56;5085712;28;20083;-73
2022/08/12 13:16:19;;;;;;;2.60;1.20;;;;;;;25.32;36.45;100164.00;5068332;28;20025;-73
2022/08/12 13:18:49;;;;;;;3.45;1.42;;;;;;;25.32;36.77;100158.59;5087727;28;20177;-75